Time;durP1;ratioP1;P1;durP2;ratioP2;P2;SDS_P1;SDS_P2;PMS_P1;PMS_P2;Temp;Humidity;BMP_temperature;BMP_pressure;BME280_temperature;BME280_humidity;BME280_pressure;Samples;Min_cycle;Max_cycle;Signal;HPM_P1;HPM_P2
2023/08/08 00:01:06;;;;;;;7.85;5.30;;;12.70;99.90;;;;;;4976466;28;20117;-85
2023/08/08 00:03:32;;;;;;;8.15;5.10;;;12.70;99.90;;;;;;4993894;28;20046;-85
2023/08/08 00:05:57;;;;;;;8.88;5.30;;;12.70;99.90;;;;;;5009526;28;20411;-85
2023/08/08 00:08:23;;;;;;;7.22;5.80;;;12.70;99.90;;;;;;5007370;28;20045;-85
2023/08/08 00:10:49;;;;;;;6.55;4.90;;;12.70;99.90;;;;;;5006019;28;20101;-85
2023/08/08 00:13:15;;;;;;;9.15;4.90;;;12.70;99.90;;;;;;5005546;28;20040;-85
2023/08/08 00:15:40;;;;;;;6.50;5.00;;;12.70;99.90;;;;;;5007566;28;20044;-85
2023/08/08 00:18:06;;;;;;;7.22;5.35;;;12.70;99.90;;;;;;4989734;28;20034;-85
2023/08/08 00:20:32;;;;;;;9.95;4.90;;;12.80;99.90;;;;;;4959439;28;20116;-84
2023/08/08 00:22:57;;;;;;;7.07;4.65;;;12.80;99.90;;;;;;4988570;28;20041;-85
2023/08/08 00:25:23;;;;;;;7.00;4.88;;;12.80;99.90;;;;;;4974915;28;20064;-84
2023/08/08 00:27:50;;;;;;;8.45;4.88;;;12.80;99.90;;;;;;4957614;28;20041;-85
2023/08/08 00:30:16;;;;;;;8.38;4.60;;;12.80;99.90;;;;;;4989847;28;20129;-85
2023/08/08 00:32:42;;;;;;;9.55;4.80;;;12.80;99.90;;;;;;4988896;28;20141;-85
2023/08/08 00:35:08;;;;;;;9.80;5.10;;;12.80;99.90;;;;;;5006005;28;20048;-85
2023/08/08 00:37:34;;;;;;;7.20;4.70;;;12.80;99.90;;;;;;5006515;28;20133;-85
2023/08/08 00:40:00;;;;;;;9.32;4.85;;;12.80;99.90;;;;;;5006160;28;20125;-85
2023/08/08 00:42:25;;;;;;;9.88;5.85;;;12.90;99.90;;;;;;5004426;28;20038;-85
2023/08/08 00:44:51;;;;;;;6.95;5.18;;;12.80;99.90;;;;;;5004961;28;20038;-85
2023/08/08 00:47:17;;;;;;;9.88;5.15;;;12.90;99.90;;;;;;4990169;28;20037;-85
2023/08/08 00:49:46;;;;;;;8.50;5.80;;;12.90;99.90;;;;;;4989768;28;20057;-85
2023/08/08 00:52:12;;;;;;;8.15;5.45;;;12.80;99.90;;;;;;4949890;28;20100;-85
2023/08/08 00:54:38;;;;;;;6.93;5.15;;;12.80;99.90;;;;;;4984666;28;20042;-84
2023/08/08 00:57:04;;;;;;;7.80;4.90;;;12.80;99.90;;;;;;4941069;28;20108;-84
2023/08/08 00:59:30;;;;;;;10.63;4.75;;;12.80;99.90;;;;;;4958463;28;20030;-84
2023/08/08 01:01:57;;;;;;;10.98;5.80;;;12.70;99.90;;;;;;4972057;28;20082;-84
2023/08/08 01:04:26;;;;;;;8.43;5.25;;;12.70;99.90;;;;;;4958023;28;20034;-85
2023/08/08 01:06:58;;;;;;;9.30;5.65;;;12.70;99.90;;;;;;4958241;28;20506;-84
2023/08/08 01:09:29;;;;;;;11.30;5.93;;;12.70;99.90;;;;;;4970761;28;20046;-84
2023/08/08 01:11:56;;;;;;;7.68;5.50;;;12.70;99.90;;;;;;4969062;28;20043;-85
2023/08/08 01:14:24;;;;;;;8.43;5.30;;;12.70;99.90;;;;;;4956809;28;20042;-85
2023/08/08 01:16:51;;;;;;;9.90;5.43;;;12.70;99.90;;;;;;4970911;28;20365;-85
2023/08/08 01:19:25;;;;;;;6.70;4.70;;;12.70;99.90;;;;;;4957447;28;20034;-84
2023/08/08 01:21:53;;;;;;;9.48;5.22;;;12.70;99.90;;;;;;4969761;28;20042;-84
2023/08/08 01:24:25;;;;;;;8.50;5.40;;;12.70;99.90;;;;;;4958255;28;20081;-84
2023/08/08 01:26:51;;;;;;;7.78;5.32;;;12.70;99.90;;;;;;4956426;28;20130;-85
2023/08/08 01:29:17;;;;;;;6.65;5.40;;;12.80;99.90;;;;;;4956519;28;20042;-84
2023/08/08 01:31:43;;;;;;;12.50;5.70;;;12.80;99.90;;;;;;4955417;28;20034;-84
2023/08/08 01:34:08;;;;;;;9.35;6.15;;;12.80;99.90;;;;;;4970899;28;20045;-84
2023/08/08 01:36:57;;;;;;;6.35;5.28;;;12.80;99.90;;;;;;4974085;28;20046;-84
2023/08/08 01:39:30;;;;;;;7.75;5.32;;;12.80;99.90;;;;;;4973281;28;20038;-85
2023/08/08 01:41:56;;;;;;;10.68;5.38;;;12.80;99.90;;;;;;4969133;28;20042;-85
2023/08/08 01:44:25;;;;;;;7.63;5.70;;;12.80;99.90;;;;;;4972888;28;20047;-84
2023/08/08 01:46:52;;;;;;;8.15;5.50;;;12.90;99.90;;;;;;4971120;28;20085;-84
2023/08/08 01:49:18;;;;;;;8.15;5.00;;;12.90;99.90;;;;;;4955947;28;20050;-84
2023/08/08 01:51:44;;;;;;;11.30;6.05;;;12.90;99.90;;;;;;4978093;28;20097;-84
2023/08/08 01:54:09;;;;;;;8.68;5.65;;;12.90;99.90;;;;;;4971045;28;20138;-84
2023/08/08 01:56:35;;;;;;;7.45;5.38;;;12.90;99.90;;;;;;4971784;28;20125;-84
2023/08/08 01:59:01;;;;;;;9.23;5.35;;;12.90;99.90;;;;;;4967953;28;20032;-84
2023/08/08 02:01:27;;;;;;;8.93;5.40;;;12.90;99.90;;;;;;4967978;28;20081;-84
2023/08/08 02:03:53;;;;;;;8.73;5.38;;;13.00;99.90;;;;;;4973039;28;20098;-84
2023/08/08 02:06:18;;;;;;;9.80;5.07;;;13.00;99.90;;;;;;4972491;28;20042;-84
2023/08/08 02:08:45;;;;;;;8.63;5.97;;;13.00;99.90;;;;;;4988899;28;20046;-84
2023/08/08 02:11:11;;;;;;;7.00;5.15;;;13.00;99.90;;;;;;4965004;28;20496;-84
2023/08/08 02:13:37;;;;;;;8.38;5.63;;;13.00;99.90;;;;;;4970659;28;20093;-84
2023/08/08 02:16:02;;;;;;;8.15;5.63;;;13.00;99.90;;;;;;5005279;28;20093;-84
2023/08/08 02:18:28;;;;;;;10.02;5.47;;;13.80;99.90;;;;;;4986823;28;20130;-84
2023/08/08 02:20:54;;;;;;;10.02;5.57;;;13.00;99.90;;;;;;4971369;28;20069;-84
2023/08/08 02:23:20;;;;;;;8.52;5.55;;;13.00;99.90;;;;;;4949485;28;20042;-85
2023/08/08 02:25:45;;;;;;;9.60;5.55;;;13.00;99.90;;;;;;4973111;28;20504;-84
2023/08/08 02:28:11;;;;;;;8.50;5.00;;;13.00;99.90;;;;;;4961020;28;20669;-85
2023/08/08 02:30:38;;;;;;;7.13;5.38;;;13.00;99.90;;;;;;4953627;28;20540;-85
2023/08/08 02:33:04;;;;;;;11.57;5.35;;;13.00;99.90;;;;;;4989046;28;20034;-85
2023/08/08 02:35:29;;;;;;;14.75;6.22;;;13.00;99.90;;;;;;4972533;28;20439;-85
2023/08/08 02:37:55;;;;;;;11.88;5.57;;;13.00;99.90;;;;;;4952218;28;20866;-85
2023/08/08 02:40:23;;;;;;;10.25;5.72;;;13.00;99.90;;;;;;4953538;28;20558;-85
2023/08/08 02:42:49;;;;;;;10.30;5.38;;;13.00;99.90;;;;;;4971539;28;20423;-85
2023/08/08 02:45:15;;;;;;;14.02;6.28;;;13.00;99.90;;;;;;4988598;28;20053;-85
2023/08/08 02:47:40;;;;;;;10.85;5.57;;;13.00;99.90;;;;;;4972619;28;20042;-85
2023/08/08 02:50:06;;;;;;;11.90;6.53;;;13.00;99.90;;;;;;4987407;28;20038;-85
2023/08/08 02:52:32;;;;;;;10.70;6.15;;;13.00;99.90;;;;;;4969652;28;20174;-84
2023/08/08 02:54:58;;;;;;;11.73;6.00;;;13.00;99.90;;;;;;4987015;28;20105;-85
2023/08/08 02:57:24;;;;;;;9.40;5.47;;;13.00;99.90;;;;;;4968949;28;20113;-85
2023/08/08 02:59:49;;;;;;;9.95;5.90;;;13.00;99.90;;;;;;4953774;28;20095;-85
2023/08/08 03:02:15;;;;;;;12.35;6.13;;;13.00;99.90;;;;;;4971963;28;20529;-85
2023/08/08 03:04:40;;;;;;;9.98;6.30;;;13.10;99.90;;;;;;4971072;28;20122;-85
2023/08/08 03:07:06;;;;;;;11.70;6.32;;;13.10;99.90;;;;;;5004202;28;20511;-85
2023/08/08 03:09:32;;;;;;;10.77;6.15;;;13.10;99.90;;;;;;4972307;28;20058;-85
2023/08/08 03:11:57;;;;;;;11.32;5.70;;;13.10;99.90;;;;;;4936629;28;20050;-85
2023/08/08 03:14:23;;;;;;;10.77;5.57;;;13.20;99.90;;;;;;4983491;28;20046;-85
2023/08/08 03:16:49;;;;;;;11.73;6.05;;;13.20;99.90;;;;;;4987691;28;20041;-85
2023/08/08 03:19:14;;;;;;;14.02;5.85;;;13.20;99.90;;;;;;5004698;28;20038;-85
2023/08/08 03:21:40;;;;;;;9.80;5.57;;;13.20;99.90;;;;;;4972207;28;20084;-85
2023/08/08 03:24:06;;;;;;;8.52;5.38;;;13.20;99.90;;;;;;4971326;28;20116;-85
2023/08/08 03:26:31;;;;;;;17.73;5.85;;;13.20;99.90;;;;;;4953782;28;20061;-85
2023/08/08 03:28:57;;;;;;;10.73;5.65;;;13.20;99.90;;;;;;4971258;28;20491;-85
2023/08/08 03:31:23;;;;;;;12.80;5.85;;;13.20;99.90;;;;;;4950935;28;20039;-85
2023/08/08 03:33:49;;;;;;;9.50;5.65;;;13.20;99.90;;;;;;4971974;28;20034;-85
2023/08/08 03:36:15;;;;;;;12.43;5.93;;;13.20;99.90;;;;;;4972416;28;20046;-85
2023/08/08 03:38:44;;;;;;;11.85;5.60;;;13.20;99.90;;;;;;4955479;28;20476;-85
2023/08/08 03:41:10;;;;;;;15.18;5.65;;;13.20;99.90;;;;;;4969717;28;20038;-86
2023/08/08 03:43:35;;;;;;;10.07;5.55;;;13.20;99.90;;;;;;4987138;28;20070;-85
2023/08/08 03:46:01;;;;;;;9.70;5.13;;;13.20;99.90;;;;;;4987528;28;20045;-85
2023/08/08 03:48:27;;;;;;;7.47;5.05;;;13.10;99.90;;;;;;4968992;28;20121;-85
2023/08/08 03:50:52;;;;;;;13.35;6.38;;;13.20;99.90;;;;;;4972631;28;20038;-85
2023/08/08 03:53:18;;;;;;;19.33;5.88;;;13.20;99.90;;;;;;4965349;28;20085;-85
2023/08/08 03:55:44;;;;;;;9.95;5.93;;;13.10;99.90;;;;;;4984222;28;20055;-85
2023/08/08 03:58:09;;;;;;;8.90;5.45;;;13.10;99.90;;;;;;4976958;28;20070;-85
2023/08/08 04:00:35;;;;;;;10.98;5.28;;;13.10;99.90;;;;;;4967098;28;20034;-85
2023/08/08 04:03:00;;;;;;;10.38;5.35;;;13.10;99.90;;;;;;4970719;28;20514;-86
2023/08/08 04:05:26;;;;;;;10.32;5.38;;;13.10;99.90;;;;;;4972056;28;20042;-85
2023/08/08 04:07:52;;;;;;;15.82;6.30;;;13.10;99.90;;;;;;4981241;28;20175;-85
2023/08/08 04:10:18;;;;;;;15.75;5.60;;;13.00;99.90;;;;;;4947745;28;20121;-85
2023/08/08 04:12:43;;;;;;;11.63;5.18;;;13.00;99.90;;;;;;4963230;28;20042;-85
2023/08/08 04:15:09;;;;;;;9.38;4.95;;;13.00;99.90;;;;;;5004291;28;20080;-85
2023/08/08 04:17:35;;;;;;;7.80;4.93;;;13.00;99.90;;;;;;4980609;28;20038;-85
2023/08/08 04:20:01;;;;;;;8.93;4.32;;;13.00;99.90;;;;;;4982348;28;20384;-85
2023/08/08 04:22:26;;;;;;;7.03;4.25;;;13.00;99.90;;;;;;4973138;28;20041;-85
2023/08/08 04:24:52;;;;;;;13.50;4.63;;;13.00;99.90;;;;;;4969317;28;20062;-85
2023/08/08 04:27:18;;;;;;;9.00;4.22;;;13.00;99.90;;;;;;5003265;28;20038;-85
2023/08/08 04:29:44;;;;;;;7.65;3.85;;;12.90;99.90;;;;;;4966324;28;20100;-85
2023/08/08 04:32:09;;;;;;;8.43;3.70;;;12.90;99.90;;;;;;4944607;28;20030;-84
2023/08/08 04:34:35;;;;;;;7.55;4.10;;;12.90;99.90;;;;;;4961738;28;20510;-84
2023/08/08 04:37:01;;;;;;;8.23;3.15;;;13.00;99.90;;;;;;4958018;28;20123;-84
2023/08/08 04:39:26;;;;;;;9.63;3.92;;;12.90;99.90;;;;;;4955031;28;20034;-84
2023/08/08 04:41:52;;;;;;;8.10;3.50;;;12.90;99.90;;;;;;4968055;28;20160;-84
2023/08/08 04:44:17;;;;;;;7.10;3.60;;;12.90;99.90;;;;;;4993321;28;20049;-84
2023/08/08 04:46:43;;;;;;;7.25;3.58;;;12.90;99.90;;;;;;4977881;28;20096;-84
2023/08/08 04:49:09;;;;;;;8.80;3.35;;;12.90;99.90;;;;;;4992440;28;20034;-84
2023/08/08 04:51:34;;;;;;;9.65;3.47;;;12.90;99.90;;;;;;4952882;28;20491;-84
2023/08/08 04:54:00;;;;;;;10.52;3.85;;;12.90;99.90;;;;;;4976411;28;20436;-84
2023/08/08 04:56:26;;;;;;;7.70;3.50;;;12.90;99.90;;;;;;5008768;28;20037;-84
2023/08/08 04:58:51;;;;;;;8.40;3.55;;;12.90;99.90;;;;;;4994809;28;20030;-84
2023/08/08 05:01:20;;;;;;;7.00;3.15;;;12.90;99.90;;;;;;5024019;28;20513;-84
2023/08/08 05:03:46;;;;;;;13.23;3.78;;;12.90;99.90;;;;;;5010103;28;20387;-84
2023/08/08 05:06:12;;;;;;;8.18;3.10;;;12.90;99.90;;;;;;4992512;28;20042;-84
2023/08/08 05:08:37;;;;;;;12.07;3.75;;;12.80;99.90;;;;;;4988551;28;20041;-84
2023/08/08 05:11:03;;;;;;;7.28;3.05;;;12.90;99.90;;;;;;4992232;28;20121;-84
2023/08/08 05:13:29;;;;;;;7.82;2.95;;;12.80;99.90;;;;;;4991649;28;20446;-84
2023/08/08 05:15:54;;;;;;;5.35;3.80;;;12.80;99.90;;;;;;5011158;28;20041;-84
2023/08/08 05:18:20;;;;;;;7.85;3.03;;;12.80;99.90;;;;;;5004106;28;20056;-84
2023/08/08 05:20:46;;;;;;;9.88;3.30;;;12.90;99.90;;;;;;5003883;28;20121;-84
2023/08/08 05:23:11;;;;;;;9.85;3.47;;;12.80;99.90;;;;;;4973887;28;20458;-84
2023/08/08 05:25:37;;;;;;;6.30;3.15;;;12.90;99.90;;;;;;4991793;28;20050;-84
2023/08/08 05:28:03;;;;;;;10.45;3.15;;;12.90;99.90;;;;;;4990216;28;20049;-84
2023/08/08 05:30:28;;;;;;;8.07;3.50;;;12.90;99.90;;;;;;4986209;28;20407;-84
2023/08/08 05:32:54;;;;;;;5.30;2.63;;;13.00;99.90;;;;;;4992206;28;20045;-84
2023/08/08 05:35:20;;;;;;;10.98;3.92;;;13.00;99.90;;;;;;4978010;28;20040;-84
2023/08/08 05:37:45;;;;;;;9.02;3.03;;;13.10;99.90;;;;;;4991704;28;20029;-84
2023/08/08 05:40:11;;;;;;;8.13;2.78;;;13.20;99.90;;;;;;5012563;28;20080;-84
2023/08/08 05:42:38;;;;;;;6.35;2.22;;;13.30;99.90;;;;;;5000919;28;20056;-84
2023/08/08 05:45:04;;;;;;;3.85;2.03;;;13.50;99.90;;;;;;5033156;28;20101;-84
2023/08/08 05:47:30;;;;;;;5.72;2.40;;;13.60;99.90;;;;;;5020965;28;20102;-84
2023/08/08 05:49:56;;;;;;;3.90;2.22;;;13.60;99.90;;;;;;5035105;28;20018;-83
2023/08/08 05:52:22;;;;;;;12.02;2.45;;;13.70;99.90;;;;;;5003659;28;20058;-84
2023/08/08 05:54:47;;;;;;;9.50;3.13;;;13.80;99.90;;;;;;4966483;28;20084;-84
2023/08/08 05:57:13;;;;;;;7.15;2.20;;;13.90;99.90;;;;;;4980296;28;20100;-84
2023/08/08 05:59:39;;;;;;;4.70;2.35;;;13.90;99.90;;;;;;4992480;28;20072;-84
2023/08/08 06:02:05;;;;;;;4.75;1.98;;;14.00;99.90;;;;;;5008468;28;20041;-84
2023/08/08 06:04:30;;;;;;;5.70;2.10;;;14.10;99.90;;;;;;5006693;28;20056;-84
2023/08/08 06:06:56;;;;;;;8.13;2.03;;;14.00;99.90;;;;;;4996381;28;20063;-84
2023/08/08 06:09:22;;;;;;;5.93;2.10;;;14.20;99.90;;;;;;4989312;28;20377;-84
2023/08/08 06:11:48;;;;;;;4.00;2.25;;;14.10;99.90;;;;;;5008164;28;20057;-84
2023/08/08 06:14:14;;;;;;;6.00;1.92;;;14.20;99.90;;;;;;5005267;28;20060;-85
2023/08/08 06:16:39;;;;;;;4.53;2.00;;;14.20;99.90;;;;;;4995324;28;20407;-85
2023/08/08 06:19:06;;;;;;;5.43;1.80;;;14.10;99.90;;;;;;4995189;28;20034;-84
2023/08/08 06:21:31;;;;;;;5.22;1.80;;;14.10;99.90;;;;;;5012367;28;20262;-85
2023/08/08 06:23:57;;;;;;;5.95;1.80;;;14.10;99.90;;;;;;5011677;28;20120;-85
2023/08/08 06:26:23;;;;;;;3.75;2.00;;;14.10;99.90;;;;;;5012541;28;20046;-84
2023/08/08 06:28:51;;;;;;;5.25;1.80;;;14.20;99.90;;;;;;4994299;28;20034;-85
2023/08/08 06:31:18;;;;;;;4.30;1.42;;;14.20;99.90;;;;;;5011273;28;20124;-84
2023/08/08 06:33:43;;;;;;;2.70;1.60;;;14.30;99.90;;;;;;5012450;28;20034;-84
2023/08/08 06:36:09;;;;;;;4.07;1.70;;;14.40;99.90;;;;;;5012319;28;20799;-85
2023/08/08 06:38:35;;;;;;;5.05;1.50;;;14.40;99.90;;;;;;4997554;28;20073;-85
2023/08/08 06:41:02;;;;;;;3.97;1.60;;;14.50;99.90;;;;;;5011852;28;20403;-84
2023/08/08 06:43:28;;;;;;;3.67;1.70;;;14.50;99.90;;;;;;4995170;28;20513;-84
2023/08/08 06:45:53;;;;;;;6.07;1.80;;;14.60;99.90;;;;;;4995908;28;20037;-83
2023/08/08 06:48:19;;;;;;;4.18;1.50;;;14.70;99.90;;;;;;5012921;28;20108;-84
2023/08/08 06:50:45;;;;;;;7.82;1.75;;;14.70;99.90;;;;;;4996270;28;20080;-84
2023/08/08 06:53:10;;;;;;;3.40;2.05;;;14.80;99.90;;;;;;5011475;28;20042;-83
2023/08/08 06:55:36;;;;;;;12.15;2.00;;;14.90;99.90;;;;;;5005956;28;20082;-84
2023/08/08 06:58:02;;;;;;;4.32;1.55;;;15.00;99.90;;;;;;4978583;28;20065;-85
2023/08/08 07:00:29;;;;;;;5.72;2.17;;;15.10;99.90;;;;;;5011265;28;20034;-84
2023/08/08 07:02:55;;;;;;;7.05;2.05;;;15.20;99.90;;;;;;4998493;28;20049;-84
2023/08/08 07:05:22;;;;;;;5.35;1.58;;;15.30;99.90;;;;;;5008246;28;20419;-83
2023/08/08 07:07:52;;;;;;;6.80;1.60;;;15.30;99.90;;;;;;4984298;28;20048;-83
2023/08/08 07:10:18;;;;;;;3.33;1.40;;;15.50;99.90;;;;;;4989566;28;20041;-83
2023/08/08 07:12:44;;;;;;;5.97;1.50;;;15.50;99.90;;;;;;5006494;28;20038;-83
2023/08/08 07:15:10;;;;;;;3.47;1.70;;;15.60;99.90;;;;;;5001976;28;20045;-84
2023/08/08 07:17:36;;;;;;;5.72;1.60;;;15.70;99.90;;;;;;5009090;28;20033;-83
2023/08/08 07:20:03;;;;;;;4.53;1.48;;;15.80;99.90;;;;;;4993592;28;20045;-84
2023/08/08 07:22:28;;;;;;;3.53;1.67;;;16.00;99.90;;;;;;4990394;28;20646;-84
2023/08/08 07:24:54;;;;;;;9.43;2.00;;;16.10;99.90;;;;;;4989203;28;20070;-83
2023/08/08 07:27:21;;;;;;;3.63;1.30;;;16.20;99.90;;;;;;4988995;28;20088;-83
2023/08/08 07:29:47;;;;;;;6.10;1.33;;;16.30;99.90;;;;;;4990815;28;20059;-83
2023/08/08 07:32:13;;;;;;;4.18;1.58;;;16.40;99.90;;;;;;4990079;28;20039;-83
2023/08/08 07:34:38;;;;;;;4.60;1.50;;;16.50;99.90;;;;;;4958974;28;20032;-83
2023/08/08 07:37:05;;;;;;;5.20;2.10;;;16.60;99.90;;;;;;4992174;28;20096;-84
2023/08/08 07:39:31;;;;;;;3.95;1.33;;;16.80;99.90;;;;;;4990245;28;20033;-83
2023/08/08 07:41:57;;;;;;;8.25;2.60;;;16.80;99.90;;;;;;5005541;28;20388;-83
2023/08/08 07:44:23;;;;;;;3.65;1.02;;;16.80;99.90;;;;;;4990546;28;20325;-82
2023/08/08 07:46:49;;;;;;;5.55;1.73;;;16.90;99.90;;;;;;5008796;28;20440;-85
2023/08/08 07:49:14;;;;;;;7.38;1.40;;;17.00;99.90;;;;;;4993038;28;20046;-84
2023/08/08 07:51:40;;;;;;;4.90;1.77;;;17.00;99.90;;;;;;4987180;28;20049;-85
2023/08/08 07:54:10;;;;;;;6.03;1.90;;;17.00;99.90;;;;;;4984001;28;20038;-85
2023/08/08 07:56:36;;;;;;;2.40;1.45;;;17.20;99.90;;;;;;4974588;28;20050;-85
2023/08/08 07:59:02;;;;;;;2.17;1.50;;;17.20;99.90;;;;;;4965730;28;20033;-84
2023/08/08 08:01:28;;;;;;;5.22;1.55;;;17.30;99.90;;;;;;4979111;28;20460;-84
2023/08/08 08:03:54;;;;;;;7.95;1.63;;;17.20;99.90;;;;;;4974467;28;20338;-85
2023/08/08 08:06:20;;;;;;;3.60;1.63;;;17.30;99.90;;;;;;4968329;28;20104;-85
2023/08/08 08:08:46;;;;;;;4.85;1.60;;;17.30;99.90;;;;;;4963288;28;20041;-85
2023/08/08 08:11:13;;;;;;;4.07;1.30;;;17.40;99.90;;;;;;4989203;28;20053;-85
2023/08/08 08:13:39;;;;;;;4.28;1.50;;;17.50;99.90;;;;;;4980292;28;20073;-85
2023/08/08 08:16:05;;;;;;;2.85;1.25;;;17.50;99.90;;;;;;4951917;28;20220;-85
2023/08/08 08:18:31;;;;;;;2.38;1.15;;;17.60;99.90;;;;;;4970781;28;20038;-84
2023/08/08 08:20:57;;;;;;;2.42;1.40;;;17.70;99.90;;;;;;4997393;28;20126;-85
2023/08/08 08:23:23;;;;;;;2.97;1.30;;;17.70;99.90;;;;;;4980362;28;20124;-85
2023/08/08 08:25:50;;;;;;;5.03;1.75;;;17.70;99.90;;;;;;4978150;28;20050;-85
2023/08/08 08:28:16;;;;;;;3.90;1.10;;;17.50;99.90;;;;;;4989127;28;20049;-84
2023/08/08 08:30:42;;;;;;;5.40;1.88;;;17.40;99.90;;;;;;4978143;28;20042;-84
2023/08/08 08:33:08;;;;;;;6.07;1.35;;;17.40;99.90;;;;;;4993819;28;20038;-84
2023/08/08 08:35:37;;;;;;;7.30;1.48;;;17.30;99.90;;;;;;4970660;28;20877;-84
2023/08/08 08:38:03;;;;;;;4.55;1.20;;;17.20;99.90;;;;;;4994409;28;20050;-84
2023/08/08 08:40:33;;;;;;;6.30;1.17;;;17.10;99.90;;;;;;4978540;28;20046;-84
2023/08/08 08:43:00;;;;;;;3.45;1.25;;;17.20;99.90;;;;;;4976245;28;20537;-84
2023/08/08 08:45:27;;;;;;;2.97;1.50;;;17.20;99.90;;;;;;4944416;28;20515;-84
2023/08/08 08:47:55;;;;;;;2.35;1.35;;;17.40;99.90;;;;;;4987601;28;20053;-84
2023/08/08 08:50:26;;;;;;;4.95;1.27;;;17.50;99.90;;;;;;4978967;28;20053;-84
2023/08/08 08:52:55;;;;;;;14.20;1.40;;;17.50;99.90;;;;;;4986826;28;20053;-84
2023/08/08 08:55:21;;;;;;;2.47;1.20;;;17.60;99.90;;;;;;4984449;28;20111;-85
2023/08/08 08:57:50;;;;;;;5.05;1.45;;;17.60;99.90;;;;;;4989803;28;20391;-85
2023/08/08 09:00:16;;;;;;;8.52;1.58;;;17.60;99.90;;;;;;4990891;28;20045;-85
2023/08/08 09:02:42;;;;;;;3.28;1.30;;;17.70;99.90;;;;;;4989452;28;20066;-85
2023/08/08 09:05:08;;;;;;;3.50;1.00;;;17.60;99.90;;;;;;4973929;28;20076;-85
2023/08/08 09:07:36;;;;;;;5.57;1.27;;;17.70;99.90;;;;;;4987428;28;20038;-84
2023/08/08 09:10:03;;;;;;;2.95;1.30;;;17.80;99.90;;;;;;4999089;28;20072;-84
2023/08/08 09:12:31;;;;;;;2.92;0.90;;;17.90;99.90;;;;;;4987762;28;20057;-85
2023/08/08 09:14:57;;;;;;;2.83;1.20;;;17.90;99.90;;;;;;4984130;28;20046;-85
2023/08/08 09:17:26;;;;;;;1.85;0.95;;;17.70;99.90;;;;;;4994479;28;20049;-85
2023/08/08 09:19:58;;;;;;;3.33;1.25;;;17.60;99.90;;;;;;4994977;28;20270;-85
2023/08/08 09:22:24;;;;;;;2.28;1.48;;;17.70;99.90;;;;;;4985093;28;20115;-84
2023/08/08 09:24:50;;;;;;;2.72;1.05;;;17.80;99.90;;;;;;5010096;28;20056;-85
2023/08/08 09:27:16;;;;;;;6.63;1.33;;;17.70;99.90;;;;;;4992250;28;20084;-85
2023/08/08 09:29:42;;;;;;;1.65;1.05;;;17.60;99.90;;;;;;4968510;28;20042;-85
2023/08/08 09:32:09;;;;;;;2.15;1.10;;;17.70;99.90;;;;;;4980034;28;20042;-84
2023/08/08 09:34:35;;;;;;;3.25;1.30;;;17.70;99.90;;;;;;4990480;28;20577;-84
2023/08/08 09:37:01;;;;;;;0.93;0.82;;;17.60;99.90;;;;;;4986826;28;20114;-83
2023/08/08 09:39:29;;;;;;;4.05;1.30;;;17.60;99.90;;;;;;4985562;28;20604;-84
2023/08/08 09:41:56;;;;;;;2.50;1.00;;;17.90;99.90;;;;;;4970647;28;20064;-84
2023/08/08 09:44:29;;;;;;;4.05;1.10;;;17.90;99.90;;;;;;4976828;28;20052;-84
2023/08/08 09:46:55;;;;;;;5.90;1.80;;;18.00;99.90;;;;;;5001924;28;20117;-84
2023/08/08 09:49:22;;;;;;;6.18;1.20;;;18.10;99.90;;;;;;4992003;28;20480;-84
2023/08/08 09:51:49;;;;;;;5.22;1.50;;;18.00;99.90;;;;;;4970008;28;20104;-84
2023/08/08 09:54:15;;;;;;;2.40;1.40;;;17.90;99.90;;;;;;4975134;28;20054;-84
2023/08/08 09:56:42;;;;;;;3.85;1.30;;;17.70;99.90;;;;;;4980785;28;20050;-84
2023/08/08 09:59:09;;;;;;;3.53;1.23;;;17.40;99.90;;;;;;4981697;28;20045;-84
2023/08/08 10:01:38;;;;;;;7.25;1.33;;;17.10;99.90;;;;;;4975280;28;21586;-85
2023/08/08 10:04:06;;;;;;;3.15;0.90;;;16.90;99.90;;;;;;4976774;28;20038;-85
2023/08/08 10:06:32;;;;;;;1.55;1.10;;;16.70;99.90;;;;;;4976941;28;20069;-85
2023/08/08 10:08:58;;;;;;;2.13;1.27;;;16.70;99.90;;;;;;4978248;28;20124;-84
2023/08/08 10:11:25;;;;;;;2.40;1.00;;;16.90;99.90;;;;;;4974374;28;20041;-84
2023/08/08 10:13:53;;;;;;;1.17;1.08;;;17.10;99.90;;;;;;4986081;28;20038;-85
2023/08/08 10:16:19;;;;;;;2.50;1.23;;;17.50;99.90;;;;;;4947595;28;20151;-85
2023/08/08 10:18:46;;;;;;;3.10;1.15;;;17.80;99.90;;;;;;4973437;28;21026;-86
2023/08/08 10:21:12;;;;;;;8.15;1.67;;;18.20;99.90;;;;;;4958371;28;20471;-85
2023/08/08 10:23:39;;;;;;;2.78;0.95;;;18.50;99.90;;;;;;4959422;28;20125;-85
2023/08/08 10:26:17;;;;;;;3.35;1.15;;;18.60;99.90;;;;;;4958023;28;20787;-85
2023/08/08 10:28:54;;;;;;;1.98;1.35;;;18.40;99.90;;;;;;4975623;28;20125;-85
2023/08/08 10:31:21;;;;;;;1.80;1.15;;;18.10;99.90;;;;;;4977765;28;20499;-85
2023/08/08 10:33:46;;;;;;;3.00;1.02;;;18.00;99.90;;;;;;4947073;28;20123;-85
2023/08/08 10:36:13;;;;;;;1.25;0.98;;;17.90;99.90;;;;;;4962968;28;20464;-86
2023/08/08 10:38:48;;;;;;;1.75;0.90;;;17.80;99.90;;;;;;4980195;28;20129;-85
2023/08/08 10:41:19;;;;;;;6.07;1.35;;;18.10;99.90;;;;;;4952358;28;20099;-86
2023/08/08 10:43:51;;;;;;;1.45;1.00;;;18.40;99.90;;;;;;4980754;28;20038;-85
2023/08/08 10:46:31;;;;;;;3.00;1.00;;;18.70;99.90;;;;;;4994122;28;20134;-86
2023/08/08 10:48:59;;;;;;;2.28;1.13;;;18.90;99.90;;;;;;4974550;28;20108;-86
2023/08/08 10:51:38;;;;;;;4.03;1.60;;;19.10;99.90;;;;;;4974147;28;20507;-87
2023/08/08 10:54:30;;;;;;;5.97;1.27;;;19.00;99.90;;;;;;4956931;28;20046;-86
2023/08/08 10:56:57;;;;;;;4.03;1.23;;;18.50;99.90;;;;;;4965731;28;20046;-85
2023/08/08 10:59:35;;;;;;;2.08;0.95;;;18.20;99.90;;;;;;4963248;28;20035;-85
2023/08/08 11:02:02;;;;;;;7.78;2.08;;;18.50;99.90;;;;;;4950499;28;20479;-85
2023/08/08 11:04:30;;;;;;;3.08;1.20;;;18.70;99.90;;;;;;4949910;28;20511;-86
2023/08/08 11:06:56;;;;;;;4.47;1.33;;;18.60;99.90;;;;;;4951627;28;20065;-86
2023/08/08 11:09:23;;;;;;;2.03;1.08;;;18.40;99.90;;;;;;4974104;28;20697;-86
2023/08/08 11:11:49;;;;;;;4.72;2.00;;;18.10;99.90;;;;;;4950093;28;20042;-85
2023/08/08 11:14:22;;;;;;;3.42;1.30;;;17.90;99.90;;;;;;4962594;28;20046;-86
2023/08/08 11:16:50;;;;;;;2.60;1.23;;;17.80;99.90;;;;;;4974223;28;20053;-84
2023/08/08 11:19:18;;;;;;;2.58;1.27;;;17.80;99.90;;;;;;4971662;28;20045;-85
2023/08/08 11:21:46;;;;;;;2.60;1.40;;;17.90;99.90;;;;;;4986213;28;20121;-84
2023/08/08 11:24:12;;;;;;;2.58;1.02;;;17.80;99.90;;;;;;4986876;28;20404;-84
2023/08/08 11:26:40;;;;;;;3.03;1.30;;;17.60;99.90;;;;;;4966606;28;20050;-85
2023/08/08 11:29:06;;;;;;;3.58;1.48;;;17.50;99.90;;;;;;4969398;28;20084;-84
2023/08/08 11:31:34;;;;;;;6.28;1.50;;;17.60;99.90;;;;;;4953462;28;20050;-84
2023/08/08 11:34:00;;;;;;;6.05;1.20;;;17.90;99.90;;;;;;4973535;28;20070;-84
2023/08/08 11:36:30;;;;;;;3.55;1.40;;;18.00;99.90;;;;;;4976261;28;20105;-84
2023/08/08 11:38:57;;;;;;;3.92;1.48;;;18.20;99.90;;;;;;4978412;28;20038;-85
2023/08/08 11:41:24;;;;;;;2.50;1.55;;;18.40;99.90;;;;;;4951373;28;20026;-85
2023/08/08 11:43:53;;;;;;;3.58;1.45;;;18.50;99.90;;;;;;4952931;28;20037;-85
2023/08/08 11:46:22;;;;;;;2.10;1.30;;;18.60;99.90;;;;;;4978163;28;20518;-86
2023/08/08 11:48:48;;;;;;;4.15;1.50;;;18.40;99.90;;;;;;4985587;28;20550;-86
2023/08/08 11:51:15;;;;;;;2.72;1.40;;;18.30;99.90;;;;;;4969831;28;20068;-86
2023/08/08 11:53:53;;;;;;;2.25;1.20;;;18.30;99.90;;;;;;4993499;28;20121;-86
2023/08/08 11:56:20;;;;;;;2.13;1.35;;;18.60;99.90;;;;;;4979051;28;20037;-86
2023/08/08 11:58:51;;;;;;;2.25;1.30;;;18.90;99.90;;;;;;4978166;28;20146;-86
2023/08/08 12:01:20;;;;;;;8.15;1.83;;;19.10;99.90;;;;;;4950660;28;20037;-86
2023/08/08 12:03:46;;;;;;;3.03;1.30;;;19.10;99.90;;;;;;4994706;28;20048;-86
2023/08/08 12:06:18;;;;;;;3.90;1.50;;;18.90;99.90;;;;;;4979872;28;20049;-85
2023/08/08 12:08:45;;;;;;;3.08;1.20;;;19.00;99.90;;;;;;4976602;28;20042;-85
2023/08/08 12:11:12;;;;;;;3.25;1.30;;;18.90;99.90;;;;;;4979116;28;20424;-85
2023/08/08 12:13:40;;;;;;;5.55;1.75;;;18.80;99.90;;;;;;4975040;28;20096;-85
2023/08/08 12:16:10;;;;;;;5.55;1.67;;;18.80;99.90;;;;;;4980824;28;20061;-85
2023/08/08 12:18:40;;;;;;;4.47;1.38;;;18.50;99.90;;;;;;4961348;28;20077;-85
2023/08/08 12:21:07;;;;;;;6.63;1.30;;;18.60;99.90;;;;;;4995379;28;20056;-85
2023/08/08 12:23:34;;;;;;;2.53;1.25;;;18.80;99.90;;;;;;4949627;28;20304;-85
2023/08/08 12:26:02;;;;;;;7.25;1.52;;;19.10;99.90;;;;;;4962584;28;20049;-86
2023/08/08 12:28:29;;;;;;;6.70;1.48;;;19.20;99.90;;;;;;4978955;28;20046;-85
2023/08/08 12:30:55;;;;;;;3.15;1.15;;;19.40;99.90;;;;;;4977379;28;20395;-85
2023/08/08 12:33:20;;;;;;;6.85;1.40;;;19.60;99.90;;;;;;4994922;28;20033;-85
2023/08/08 12:35:47;;;;;;;2.88;1.10;;;19.80;99.90;;;;;;4963156;28;20498;-86
2023/08/08 12:38:14;;;;;;;8.13;1.67;;;19.80;99.90;;;;;;4979508;28;20046;-86
2023/08/08 12:40:39;;;;;;;4.55;1.45;;;19.90;99.90;;;;;;4979320;28;20034;-86
2023/08/08 12:43:05;;;;;;;3.70;1.48;;;19.90;99.90;;;;;;4963531;28;20048;-85